createdAt,value
2023-04-29T00:01:30.815Z,16.87
2023-04-29T00:03:58.783Z,16.50
2023-04-29T00:06:25.965Z,16.55
2023-04-29T00:08:53.536Z,16.24
2023-04-29T00:11:21.052Z,16.60
2023-04-29T00:13:48.031Z,16.68
2023-04-29T00:16:15.276Z,16.76
2023-04-29T00:18:42.245Z,16.76
2023-04-29T00:21:09.314Z,16.67
2023-04-29T00:23:36.663Z,16.55
2023-04-29T00:26:03.760Z,16.55
2023-04-29T00:28:30.780Z,16.21
2023-04-29T00:30:58.235Z,16.54
2023-04-29T00:33:25.360Z,16.39
2023-04-29T00:35:52.370Z,16.64
2023-04-29T00:38:19.438Z,16.59
2023-04-29T00:40:46.630Z,16.72
2023-04-29T00:43:13.721Z,16.84
2023-04-29T00:45:40.823Z,16.86
2023-04-29T00:48:08.122Z,16.85
2023-04-29T00:50:36.963Z,16.92
2023-04-29T00:53:04.275Z,16.99
2023-04-29T00:55:33.247Z,17.05
2023-04-29T00:58:00.972Z,17.02
2023-04-29T01:00:28.811Z,17.02
2023-04-29T01:02:57.283Z,16.72
2023-04-29T01:05:25.375Z,16.45
2023-04-29T01:08:17.068Z,16.83
2023-04-29T01:10:55.409Z,17.10
2023-04-29T01:13:42.918Z,16.73
2023-04-29T01:16:19.710Z,16.75
2023-04-29T01:18:51.085Z,16.87
2023-04-29T01:21:18.417Z,16.75
2023-04-29T01:23:46.132Z,16.92
2023-04-29T01:26:14.351Z,16.65
2023-04-29T01:29:19.267Z,16.33
2023-04-29T01:31:52.362Z,16.37
2023-04-29T01:34:45.132Z,16.45
2023-04-29T01:37:23.003Z,16.33
2023-04-29T01:39:52.954Z,16.57
2023-04-29T01:42:46.253Z,16.58
2023-04-29T01:45:21.914Z,16.20
2023-04-29T01:47:53.861Z,15.73
2023-04-29T01:50:21.584Z,15.93
2023-04-29T01:52:48.786Z,16.06
2023-04-29T01:55:15.754Z,16.21
2023-04-29T01:57:42.768Z,16.16
2023-04-29T02:00:11.855Z,16.19
2023-04-29T02:02:38.932Z,16.19
2023-04-29T02:05:06.192Z,16.05
2023-04-29T02:07:33.349Z,15.98
2023-04-29T02:10:00.271Z,16.08
2023-04-29T02:12:27.270Z,16.12
2023-04-29T02:14:54.610Z,16.22
2023-04-29T02:19:48.749Z,16.06
2023-04-29T02:22:16.450Z,16.26
2023-04-29T02:24:43.689Z,16.26
2023-04-29T02:27:10.609Z,16.38
2023-04-29T02:29:37.778Z,16.19
2023-04-29T02:32:04.990Z,15.82
2023-04-29T02:34:32.470Z,15.61
2023-04-29T02:36:59.477Z,15.95
2023-04-29T02:39:26.372Z,16.03
2023-04-29T02:41:55.944Z,16.10
2023-04-29T02:44:23.008Z,15.81
2023-04-29T02:46:50.041Z,15.62
2023-04-29T02:49:17.053Z,15.50
2023-04-29T02:51:44.014Z,15.42
2023-04-29T02:54:12.115Z,15.53
2023-04-29T02:56:39.177Z,15.62
2023-04-29T02:59:06.639Z,15.70
2023-04-29T03:01:33.943Z,15.73
2023-04-29T03:04:01.183Z,15.95
2023-04-29T03:06:28.956Z,15.87
2023-04-29T03:08:56.345Z,15.63
2023-04-29T03:11:25.100Z,15.87
2023-04-29T03:13:52.296Z,15.88
2023-04-29T03:16:19.301Z,15.82
2023-04-29T03:18:46.294Z,15.16
2023-04-29T03:21:13.255Z,14.92
2023-04-29T03:23:40.429Z,15.26
2023-04-29T03:26:07.629Z,15.37
2023-04-29T03:28:34.633Z,15.61
2023-04-29T03:31:02.156Z,15.76
2023-04-29T03:33:29.149Z,15.35
2023-04-29T03:35:56.395Z,15.60
2023-04-29T03:38:23.398Z,15.71
2023-04-29T03:40:50.407Z,15.70
2023-04-29T03:43:17.428Z,15.88
2023-04-29T03:45:44.603Z,15.73
2023-04-29T03:48:12.765Z,15.95
2023-04-29T03:50:39.740Z,15.96
2023-04-29T03:53:06.813Z,16.04
2023-04-29T03:55:33.723Z,16.05
2023-04-29T03:58:00.891Z,16.08
2023-04-29T04:00:31.391Z,16.12
2023-04-29T04:02:59.290Z,15.79
2023-04-29T04:05:26.808Z,16.19
2023-04-29T04:07:54.051Z,16.09
2023-04-29T04:10:21.035Z,15.84
2023-04-29T04:12:48.030Z,15.27
2023-04-29T04:15:15.443Z,15.33
2023-04-29T04:17:42.402Z,15.28
2023-04-29T04:20:09.846Z,15.09
2023-04-29T04:22:36.929Z,15.15
2023-04-29T04:25:04.918Z,15.35
2023-04-29T04:27:31.862Z,15.33
2023-04-29T04:29:58.785Z,15.47
2023-04-29T04:32:26.238Z,15.36
2023-04-29T04:34:53.172Z,15.57
2023-04-29T04:37:20.147Z,15.45
2023-04-29T04:39:48.034Z,15.73
2023-04-29T04:42:15.059Z,15.20
2023-04-29T04:44:42.207Z,15.36
2023-04-29T04:47:09.293Z,15.24
2023-04-29T04:49:36.428Z,15.67
2023-04-29T04:52:04.473Z,15.78
2023-04-29T04:54:35.911Z,15.70
2023-04-29T04:57:06.355Z,15.72
2023-04-29T04:59:34.509Z,15.86
2023-04-29T05:02:01.530Z,15.72
2023-04-29T05:04:28.723Z,15.90
2023-04-29T05:06:55.772Z,16.09
2023-04-29T05:09:23.806Z,16.06
2023-04-29T05:11:51.390Z,16.29
2023-04-29T05:14:18.785Z,16.47
2023-04-29T05:16:46.878Z,16.58
2023-04-29T05:19:13.897Z,16.78
2023-04-29T05:21:40.965Z,16.60
2023-04-29T05:24:07.944Z,16.51
2023-04-29T05:26:34.931Z,16.59
2023-04-29T05:29:02.049Z,16.89
2023-04-29T05:31:30.516Z,16.56
2023-04-29T05:33:57.728Z,15.76
2023-04-29T05:36:24.808Z,15.82
2023-04-29T05:38:51.732Z,15.83
2023-04-29T05:41:18.637Z,15.92
2023-04-29T05:43:45.687Z,16.41
2023-04-29T05:46:12.693Z,15.79
2023-04-29T05:48:39.810Z,15.80
2023-04-29T05:51:06.810Z,16.16
2023-04-29T05:53:33.948Z,16.31
2023-04-29T05:56:00.978Z,16.10
2023-04-29T05:58:27.961Z,16.41
2023-04-29T06:00:55.110Z,15.78
2023-04-29T06:03:22.231Z,16.37
2023-04-29T06:05:50.443Z,16.66
2023-04-29T06:08:17.728Z,16.96
2023-04-29T06:10:44.758Z,17.24
2023-04-29T06:13:11.974Z,17.53
2023-04-29T06:15:39.190Z,17.97
2023-04-29T06:18:06.226Z,17.58
2023-04-29T06:20:34.910Z,18.22
2023-04-29T06:23:03.150Z,18.47
2023-04-29T06:25:30.393Z,18.27
2023-04-29T06:28:00.572Z,18.62
2023-04-29T06:30:27.608Z,18.83
2023-04-29T06:32:54.644Z,19.20
2023-04-29T06:35:21.692Z,19.11
2023-04-29T06:37:48.714Z,19.32
2023-04-29T06:40:15.751Z,18.82
2023-04-29T06:42:44.013Z,18.11
2023-04-29T06:45:11.612Z,17.30
2023-04-29T06:47:38.608Z,18.01
2023-04-29T06:50:06.111Z,17.83
2023-04-29T06:52:33.742Z,18.11
2023-04-29T06:55:01.085Z,17.36
2023-04-29T06:57:28.017Z,18.14
2023-04-29T06:59:55.219Z,17.72
2023-04-29T07:02:22.425Z,17.90
2023-04-29T07:04:50.434Z,18.39
2023-04-29T07:07:17.528Z,18.77
2023-04-29T07:09:44.731Z,18.81
2023-04-29T07:12:11.754Z,18.93
2023-04-29T07:14:38.772Z,19.34
2023-04-29T07:17:05.731Z,19.41
2023-04-29T07:19:32.777Z,19.36
2023-04-29T07:22:00.155Z,19.90
2023-04-29T07:24:27.150Z,20.10
2023-04-29T07:26:54.138Z,19.88
2023-04-29T07:29:21.073Z,19.72
2023-04-29T07:31:48.187Z,19.71
2023-04-29T07:34:15.263Z,19.87
2023-04-29T07:36:42.192Z,19.99
2023-04-29T07:39:09.386Z,20.17
2023-04-29T07:41:36.367Z,20.24
2023-04-29T07:44:03.396Z,20.30
2023-04-29T07:46:30.383Z,20.01
2023-04-29T07:48:58.645Z,20.04
2023-04-29T07:51:25.814Z,20.39
2023-04-29T07:53:52.752Z,20.29
2023-04-29T07:56:20.261Z,20.53
2023-04-29T07:58:47.425Z,20.42
2023-04-29T08:01:15.812Z,20.54
2023-04-29T08:03:43.251Z,20.99
2023-04-29T08:06:10.535Z,21.07
2023-04-29T08:08:37.796Z,20.93
2023-04-29T08:11:05.009Z,21.22
2023-04-29T08:13:32.010Z,21.42
2023-04-29T08:15:59.016Z,21.41
2023-04-29T08:18:26.013Z,21.37
2023-04-29T08:20:53.497Z,21.81
2023-04-29T08:23:20.406Z,21.81
2023-04-29T08:25:47.669Z,22.10
2023-04-29T08:28:14.688Z,21.96
2023-04-29T08:30:41.862Z,22.22
2023-04-29T08:33:09.461Z,21.98
2023-04-29T08:35:39.590Z,21.64
2023-04-29T08:38:07.403Z,22.09
2023-04-29T08:40:42.729Z,22.20
2023-04-29T08:43:10.951Z,22.20
2023-04-29T08:45:40.005Z,22.54
2023-04-29T08:48:10.901Z,22.48
2023-04-29T08:50:42.092Z,22.48
2023-04-29T08:53:10.909Z,22.61
2023-04-29T08:55:46.013Z,22.94
2023-04-29T08:58:14.149Z,22.76
2023-04-29T09:00:43.512Z,22.41
2023-04-29T09:03:29.822Z,22.50
2023-04-29T09:06:00.591Z,22.77
2023-04-29T09:08:28.336Z,23.35
2023-04-29T09:10:56.799Z,23.31
2023-04-29T09:13:28.854Z,22.92
2023-04-29T09:15:56.371Z,21.50
2023-04-29T09:18:49.374Z,21.46
2023-04-29T09:21:27.747Z,21.89
2023-04-29T09:23:56.671Z,22.74
2023-04-29T09:26:27.330Z,23.06
2023-04-29T09:29:18.545Z,22.02
2023-04-29T09:31:46.948Z,22.16
2023-04-29T09:34:14.877Z,22.66
2023-04-29T09:36:55.291Z,22.75
2023-04-29T09:39:23.758Z,22.23
2023-04-29T09:41:53.768Z,22.68
2023-04-29T09:44:24.630Z,21.41
2023-04-29T09:47:06.684Z,21.83
2023-04-29T09:49:41.986Z,22.76
2023-04-29T09:52:13.881Z,23.21
2023-04-29T09:54:43.505Z,23.92
2023-04-29T09:57:12.988Z,25.13
2023-04-29T09:59:41.019Z,25.60
2023-04-29T10:02:11.882Z,25.85
2023-04-29T10:04:42.090Z,25.67
2023-04-29T10:07:10.039Z,26.01
2023-04-29T10:09:40.314Z,25.72
2023-04-29T10:12:08.133Z,26.72
2023-04-29T10:14:42.439Z,26.69
2023-04-29T10:17:17.244Z,26.93
2023-04-29T10:19:58.781Z,26.37
2023-04-29T10:22:48.124Z,25.53
2023-04-29T10:25:20.852Z,22.71
2023-04-29T10:27:49.216Z,24.08
2023-04-29T10:30:18.121Z,23.13
2023-04-29T10:35:20.367Z,24.31
2023-04-29T10:37:49.118Z,24.03
2023-04-29T10:40:19.279Z,24.32
2023-04-29T10:42:51.357Z,24.17
2023-04-29T10:45:22.834Z,24.33
2023-04-29T10:48:11.043Z,24.58
2023-04-29T10:50:47.836Z,25.46
2023-04-29T10:53:16.208Z,26.61
2023-04-29T10:55:47.269Z,25.50
2023-04-29T10:58:37.206Z,26.31
2023-04-29T11:01:05.713Z,25.83
2023-04-29T11:03:59.704Z,26.62
2023-04-29T11:06:41.819Z,27.29
2023-04-29T11:09:21.927Z,27.75
2023-04-29T11:12:06.930Z,27.77
2023-04-29T11:14:41.052Z,27.67
2023-04-29T11:17:19.286Z,26.60
2023-04-29T11:19:49.812Z,25.72
2023-04-29T11:22:37.100Z,25.73
2023-04-29T11:25:06.163Z,25.93
2023-04-29T11:27:34.757Z,25.65
2023-04-29T11:30:05.398Z,25.63
2023-04-29T11:32:38.219Z,25.62
2023-04-29T11:35:16.136Z,24.64
2023-04-29T11:37:45.903Z,25.31
2023-04-29T11:40:13.992Z,25.60
2023-04-29T11:42:49.608Z,26.00
2023-04-29T11:45:20.758Z,25.93
2023-04-29T11:47:49.037Z,25.87
2023-04-29T11:50:19.546Z,25.92
2023-04-29T11:52:48.141Z,26.32
2023-04-29T11:55:15.447Z,26.62
2023-04-29T11:57:42.517Z,26.30
2023-04-29T12:00:14.207Z,26.63
2023-04-29T12:02:46.673Z,26.26
2023-04-29T12:05:16.203Z,26.34
2023-04-29T12:07:44.158Z,27.03
2023-04-29T12:10:12.123Z,27.61
2023-04-29T12:12:49.588Z,26.54
2023-04-29T12:15:17.015Z,27.00
2023-04-29T12:17:44.566Z,26.91
2023-04-29T12:20:12.403Z,26.04
2023-04-29T12:22:40.030Z,25.96
2023-04-29T12:25:08.150Z,26.33
2023-04-29T12:27:41.708Z,26.58
2023-04-29T12:30:10.194Z,26.54
2023-04-29T12:32:37.786Z,26.30
2023-04-29T12:35:04.998Z,26.46
2023-04-29T12:37:31.967Z,26.09
2023-04-29T12:39:58.968Z,26.12
2023-04-29T12:42:33.021Z,26.07
2023-04-29T12:45:00.044Z,26.32
2023-04-29T12:47:34.961Z,26.40
2023-04-29T12:50:01.983Z,26.33
2023-04-29T12:52:29.019Z,26.12
2023-04-29T12:54:57.656Z,26.57
2023-04-29T12:57:26.734Z,26.64
2023-04-29T12:59:53.706Z,26.46
2023-04-29T13:02:21.023Z,26.29
2023-04-29T13:04:48.355Z,26.07
2023-04-29T13:07:16.033Z,26.07
2023-04-29T13:09:43.077Z,25.92
2023-04-29T13:12:10.055Z,26.15
2023-04-29T13:14:37.128Z,26.10
2023-04-29T13:17:04.394Z,25.87
2023-04-29T13:19:49.788Z,25.57
2023-04-29T13:22:18.573Z,25.92
2023-04-29T13:24:46.203Z,25.71
2023-04-29T13:27:13.427Z,25.42
2023-04-29T13:29:40.466Z,25.92
2023-04-29T13:32:08.481Z,25.95
2023-04-29T13:34:36.267Z,25.89
2023-04-29T13:37:03.329Z,25.26
2023-04-29T13:39:30.396Z,25.11
2023-04-29T13:41:59.202Z,24.76
2023-04-29T13:44:33.280Z,24.69
2023-04-29T13:47:07.528Z,24.44
2023-04-29T13:50:20.114Z,24.32
2023-04-29T13:55:25.895Z,24.22
2023-04-29T13:58:30.770Z,24.29
2023-04-29T14:01:01.398Z,24.23
2023-04-29T14:03:13.144Z,24.18
2023-04-29T14:05:40.376Z,24.22
2023-04-29T14:08:07.586Z,24.73
2023-04-29T14:10:34.847Z,24.27
2023-04-29T14:13:01.889Z,23.49
2023-04-29T14:15:29.167Z,22.96
2023-04-29T14:17:57.293Z,22.38
2023-04-29T14:20:24.265Z,23.01
2023-04-29T14:22:51.316Z,23.39
2023-04-29T14:25:18.805Z,23.82
2023-04-29T14:27:45.954Z,24.21
2023-04-29T14:30:13.355Z,23.98
2023-04-29T14:32:40.286Z,23.87
2023-04-29T14:35:07.817Z,23.25
2023-04-29T14:37:34.737Z,22.66
2023-04-29T14:40:01.937Z,22.72
2023-04-29T14:42:28.995Z,22.99
2023-04-29T14:44:56.509Z,23.71
2023-04-29T14:47:23.589Z,24.12
2023-04-29T14:49:50.690Z,24.26
2023-04-29T14:52:17.609Z,24.40
2023-04-29T14:54:44.960Z,24.78
2023-04-29T14:57:12.169Z,25.01
2023-04-29T14:59:39.104Z,25.44
2023-04-29T15:02:06.300Z,25.79
2023-04-29T15:04:33.451Z,26.03
2023-04-29T15:07:00.429Z,26.31
2023-04-29T15:09:27.597Z,26.39
2023-04-29T15:11:54.593Z,26.58
2023-04-29T15:14:21.642Z,26.62
2023-04-29T15:16:49.297Z,26.65
2023-04-29T15:19:16.588Z,26.39
2023-04-29T15:21:43.525Z,26.73
2023-04-29T15:24:10.502Z,26.60
2023-04-29T15:26:37.481Z,26.50
2023-04-29T15:29:04.508Z,26.50
2023-04-29T15:31:31.512Z,26.39
2023-04-29T15:33:58.586Z,26.07
2023-04-29T15:36:30.547Z,25.90
2023-04-29T15:38:58.527Z,25.68
2023-04-29T15:41:26.790Z,25.65
2023-04-29T15:43:55.073Z,25.55
2023-04-29T15:46:22.319Z,25.14
2023-04-29T15:48:49.368Z,25.36
2023-04-29T15:51:16.409Z,25.05
2023-04-29T15:53:44.088Z,24.88
2023-04-29T15:56:11.768Z,24.85
2023-04-29T15:58:38.718Z,24.96
2023-04-29T16:01:05.919Z,24.96
2023-04-29T16:03:32.963Z,24.98
2023-04-29T16:06:00.186Z,24.81
2023-04-29T16:08:27.534Z,24.53
2023-04-29T16:10:54.488Z,24.56
2023-04-29T16:13:21.506Z,24.28
2023-04-29T16:15:48.469Z,24.46
2023-04-29T16:18:17.630Z,24.46
2023-04-29T16:20:45.192Z,24.46
2023-04-29T16:23:12.472Z,24.46
2023-04-29T16:25:41.620Z,24.28
2023-04-29T16:28:08.806Z,24.29
2023-04-29T16:30:36.522Z,24.07
2023-04-29T16:33:03.532Z,24.14
2023-04-29T16:35:31.158Z,23.63
2023-04-29T16:37:58.147Z,23.48
2023-04-29T16:40:25.328Z,23.04
2023-04-29T16:42:53.616Z,22.63
2023-04-29T16:45:23.755Z,22.61
2023-04-29T16:47:51.134Z,22.29
2023-04-29T16:50:18.492Z,22.03
2023-04-29T16:52:45.719Z,22.36
2023-04-29T16:55:13.373Z,21.72
2023-04-29T16:57:40.339Z,21.88
2023-04-29T17:00:10.550Z,21.65
2023-04-29T17:02:40.626Z,22.07
2023-04-29T17:05:09.253Z,22.20
2023-04-29T17:07:36.288Z,22.12
2023-04-29T17:10:04.050Z,22.19
2023-04-29T17:12:31.124Z,22.08
2023-04-29T17:14:58.091Z,21.27
2023-04-29T17:17:25.203Z,21.07
2023-04-29T17:19:52.496Z,21.43
2023-04-29T17:22:20.083Z,21.54
2023-04-29T17:24:47.279Z,21.65
2023-04-29T17:27:14.635Z,20.80
2023-04-29T17:29:41.595Z,20.84
2023-04-29T17:32:13.480Z,20.71
2023-04-29T17:34:40.808Z,20.88
2023-04-29T17:37:07.945Z,20.91
2023-04-29T17:39:34.932Z,20.96
2023-04-29T17:42:01.922Z,21.04
2023-04-29T17:44:29.095Z,21.15
2023-04-29T17:46:56.091Z,20.56
2023-04-29T17:49:23.163Z,20.54
2023-04-29T17:51:50.186Z,20.56
2023-04-29T17:54:17.306Z,20.62
2023-04-29T17:56:44.323Z,20.55
2023-04-29T17:59:11.409Z,20.56
2023-04-29T18:01:38.431Z,20.69
2023-04-29T18:04:06.374Z,20.59
2023-04-29T18:06:33.555Z,20.70
2023-04-29T18:09:00.899Z,20.69
2023-04-29T18:11:27.936Z,20.64
2023-04-29T18:13:55.116Z,20.35
2023-04-29T18:16:22.224Z,20.06
2023-04-29T18:18:53.953Z,20.16
2023-04-29T18:21:27.808Z,20.33
2023-04-29T18:23:56.075Z,20.20
2023-04-29T18:26:23.390Z,20.24
2023-04-29T18:28:51.109Z,20.36
2023-04-29T18:31:19.344Z,20.33
2023-04-29T18:33:46.502Z,20.25
2023-04-29T18:36:14.654Z,20.33
2023-04-29T18:38:41.844Z,20.37
2023-04-29T18:41:09.332Z,20.33
2023-04-29T18:43:36.805Z,20.34
2023-04-29T18:46:03.899Z,20.46
2023-04-29T18:48:31.365Z,20.15
2023-04-29T18:51:00.368Z,20.21
2023-04-29T18:53:27.369Z,20.06
2023-04-29T18:55:54.594Z,19.97
2023-04-29T18:58:21.842Z,19.98
2023-04-29T19:00:49.133Z,19.78
2023-04-29T19:03:16.171Z,19.73
2023-04-29T19:05:43.537Z,19.59
2023-04-29T19:08:10.594Z,19.40
2023-04-29T19:10:37.627Z,19.37
2023-04-29T19:13:04.669Z,19.46
2023-04-29T19:15:32.331Z,19.45
2023-04-29T19:17:59.362Z,19.11
2023-04-29T19:20:27.845Z,19.00
2023-04-29T19:22:54.817Z,18.78
2023-04-29T19:25:22.005Z,18.63
2023-04-29T19:27:51.993Z,18.61
2023-04-29T19:30:19.183Z,18.63
2023-04-29T19:32:47.112Z,18.45
2023-04-29T19:35:14.205Z,18.63
2023-04-29T19:37:41.321Z,18.35
2023-04-29T19:40:11.251Z,17.36
2023-04-29T19:42:39.502Z,17.40
2023-04-29T19:45:07.928Z,17.18
2023-04-29T19:47:35.485Z,17.27
2023-04-29T19:50:02.797Z,17.20
2023-04-29T19:52:30.129Z,17.29
2023-04-29T19:54:57.189Z,17.32
2023-04-29T19:57:24.316Z,17.16
2023-04-29T19:59:51.466Z,17.42
2023-04-29T20:02:19.332Z,17.55
2023-04-29T20:04:46.613Z,17.59
2023-04-29T20:07:13.964Z,17.18
2023-04-29T20:09:41.027Z,16.06
2023-04-29T20:12:08.003Z,16.95
2023-04-29T20:14:34.967Z,17.03
2023-04-29T20:17:02.159Z,16.93
2023-04-29T20:19:29.269Z,16.56
2023-04-29T20:21:56.296Z,16.83
2023-04-29T20:24:23.791Z,16.50
2023-04-29T20:26:50.765Z,16.83
2023-04-29T20:29:17.736Z,16.07
2023-04-29T20:31:44.886Z,16.75
2023-04-29T20:34:12.473Z,16.90
2023-04-29T20:36:39.669Z,17.19
2023-04-29T20:39:07.201Z,17.39
2023-04-29T20:41:34.206Z,16.98
2023-04-29T20:44:01.289Z,17.31
2023-04-29T20:46:28.276Z,17.41
2023-04-29T20:48:55.212Z,17.23
2023-04-29T20:51:22.309Z,17.47
2023-04-29T20:53:50.002Z,17.22
2023-04-29T20:56:17.008Z,17.23
2023-04-29T20:58:43.980Z,17.02
2023-04-29T21:01:11.006Z,17.22
2023-04-29T21:03:38.489Z,17.12
2023-04-29T21:06:05.551Z,16.57
2023-04-29T21:08:32.560Z,16.67
2023-04-29T21:11:00.128Z,16.94
2023-04-29T21:13:27.126Z,16.81
2023-04-29T21:15:54.250Z,16.82
2023-04-29T21:18:21.336Z,16.97
2023-04-29T21:20:48.252Z,16.72
2023-04-29T21:23:15.728Z,16.93
2023-04-29T21:25:42.688Z,16.89
2023-04-29T21:28:09.749Z,16.63
2023-04-29T21:30:36.789Z,16.62
2023-04-29T21:33:03.832Z,16.87
2023-04-29T21:35:31.016Z,16.78
2023-04-29T21:37:58.187Z,16.89
2023-04-29T21:40:26.811Z,16.90
2023-04-29T21:42:55.536Z,16.87
2023-04-29T21:45:22.720Z,16.17
2023-04-29T21:47:50.179Z,16.31
2023-04-29T21:50:17.190Z,15.83
2023-04-29T21:52:44.277Z,16.17
2023-04-29T21:55:11.420Z,15.95
2023-04-29T21:57:44.518Z,16.54
2023-04-29T22:00:28.907Z,16.11
2023-04-29T22:02:55.941Z,16.51
2023-04-29T22:05:22.928Z,16.24
2023-04-29T22:07:49.907Z,16.50
2023-04-29T22:10:16.897Z,16.38
2023-04-29T22:12:43.859Z,16.40
2023-04-29T22:15:20.953Z,16.40
2023-04-29T22:17:54.949Z,16.01
2023-04-29T22:20:21.908Z,16.37
2023-04-29T22:22:48.912Z,16.50
2023-04-29T22:25:15.944Z,16.54
2023-04-29T22:27:42.896Z,16.85
2023-04-29T22:30:10.260Z,16.87
2023-04-29T22:32:37.250Z,16.82
2023-04-29T22:35:05.009Z,16.57
2023-04-29T22:37:32.138Z,16.69
2023-04-29T22:39:59.086Z,16.77
2023-04-29T22:42:26.111Z,16.51
2023-04-29T22:44:53.089Z,16.72
2023-04-29T22:47:20.099Z,16.75
2023-04-29T22:49:47.087Z,16.75
2023-04-29T22:52:16.717Z,16.71
2023-04-29T22:54:43.703Z,16.40
2023-04-29T22:57:10.793Z,16.25
2023-04-29T22:59:37.710Z,16.13
2023-04-29T23:02:04.950Z,16.40
2023-04-29T23:04:33.693Z,16.16
2023-04-29T23:07:01.521Z,16.02
2023-04-29T23:09:28.843Z,15.51
2023-04-29T23:11:55.951Z,15.99
2023-04-29T23:14:23.098Z,16.18
2023-04-29T23:16:51.322Z,16.26
2023-04-29T23:19:18.356Z,15.89
2023-04-29T23:21:45.417Z,15.25
2023-04-29T23:24:12.388Z,15.51
2023-04-29T23:26:39.266Z,15.34
2023-04-29T23:29:06.469Z,15.67
2023-04-29T23:31:33.482Z,15.46
2023-04-29T23:34:01.210Z,15.82
2023-04-29T23:36:28.403Z,15.96
2023-04-29T23:38:55.372Z,16.00
2023-04-29T23:41:22.419Z,15.43
2023-04-29T23:43:49.366Z,15.42
2023-04-29T23:46:16.323Z,15.33
2023-04-29T23:48:43.530Z,15.12
2023-04-29T23:51:10.852Z,14.95
2023-04-29T23:53:39.611Z,15.21
2023-04-29T23:56:06.729Z,15.35
2023-04-29T23:58:33.710Z,14.98
